createdAt,value
2022-10-07T00:00:03.049Z,78.5
2022-10-07T00:03:03.050Z,78.5
2022-10-07T00:06:03.054Z,78.5
2022-10-07T00:09:03.023Z,79.2
2022-10-07T00:12:03.086Z,79.2
2022-10-07T00:15:02.992Z,79.2
2022-10-07T00:18:03.042Z,79.2
2022-10-07T00:21:02.998Z,79.2
2022-10-07T00:24:03.062Z,79.2
2022-10-07T00:27:03.016Z,79.2
2022-10-07T00:30:03.024Z,79.2
2022-10-07T00:33:03.029Z,79.2
2022-10-07T00:36:02.924Z,79.2
2022-10-07T00:39:02.965Z,79.2
2022-10-07T00:42:02.910Z,79.2
2022-10-07T00:45:02.870Z,79.2
2022-10-07T00:48:02.877Z,79.2
2022-10-07T00:51:02.881Z,78.3
2022-10-07T00:54:02.945Z,78.3
2022-10-07T00:57:02.841Z,78.3
2022-10-07T01:00:02.933Z,78.3
2022-10-07T01:03:02.846Z,78.3
2022-10-07T01:06:03.104Z,78.2
2022-10-07T01:09:02.932Z,78.2
2022-10-07T01:12:02.882Z,78.2
2022-10-07T01:15:02.903Z,78.2
2022-10-07T01:18:02.904Z,78.2
2022-10-07T01:21:02.899Z,78.2
2022-10-07T01:24:02.882Z,78.2
2022-10-07T01:27:02.880Z,78.2
2022-10-07T01:30:02.916Z,78.2
2022-10-07T01:33:02.876Z,78.2
2022-10-07T01:36:02.896Z,78.3
2022-10-07T01:39:02.862Z,78.3
2022-10-07T01:42:02.914Z,78.5
2022-10-07T01:45:02.898Z,78.5
2022-10-07T01:48:02.899Z,78.5
2022-10-07T01:51:02.901Z,78.5
2022-10-07T01:54:02.900Z,78.5
2022-10-07T01:57:02.903Z,78.9
2022-10-07T02:00:02.917Z,78.9
2022-10-07T02:03:02.917Z,78.9
2022-10-07T02:06:02.910Z,78.9
2022-10-07T02:09:02.918Z,78.9
2022-10-07T02:12:02.922Z,78.9
2022-10-07T02:15:02.939Z,78.9
2022-10-07T02:18:02.936Z,78.9
2022-10-07T02:21:02.893Z,78.9
2022-10-07T02:24:02.895Z,78.9
2022-10-07T02:27:02.855Z,80.6
2022-10-07T02:30:02.900Z,80.6
2022-10-07T02:33:02.909Z,80.6
2022-10-07T02:36:02.917Z,80.6
2022-10-07T02:39:02.886Z,80.6
2022-10-07T02:42:02.864Z,80.8
2022-10-07T02:45:02.905Z,80.8
2022-10-07T02:48:02.866Z,80.8
2022-10-07T02:51:02.862Z,80.8
2022-10-07T02:54:02.878Z,80.8
2022-10-07T02:57:03.018Z,80.8
2022-10-07T03:00:05.186Z,80.8
2022-10-07T03:03:02.887Z,80.8
2022-10-07T03:06:02.890Z,80.8
2022-10-07T03:09:02.914Z,80.8
2022-10-07T03:12:02.912Z,80.8
2022-10-07T03:15:02.900Z,80.8
2022-10-07T03:18:02.960Z,81
2022-10-07T03:21:02.886Z,81
2022-10-07T03:24:02.900Z,81
2022-10-07T03:27:02.905Z,81
2022-10-07T03:30:02.915Z,81
2022-10-07T03:33:02.892Z,81
2022-10-07T03:36:02.899Z,81
2022-10-07T03:39:02.896Z,82
2022-10-07T03:42:02.915Z,82
2022-10-07T03:45:02.887Z,82
2022-10-07T03:48:02.892Z,82
2022-10-07T03:51:02.950Z,82
2022-10-07T03:54:02.920Z,82
2022-10-07T03:57:02.900Z,82
2022-10-07T04:00:02.959Z,82
2022-10-07T04:03:03.023Z,82
2022-10-07T04:06:03.199Z,82
2022-10-07T04:09:02.866Z,82
2022-10-07T04:12:02.872Z,82
2022-10-07T04:15:02.873Z,82
2022-10-07T04:18:02.906Z,82
2022-10-07T04:21:02.843Z,82
2022-10-07T04:24:02.948Z,81
2022-10-07T04:27:02.868Z,81
2022-10-07T04:30:02.898Z,81
2022-10-07T04:33:02.875Z,81
2022-10-07T04:36:02.872Z,81.6
2022-10-07T04:39:02.906Z,81.6
2022-10-07T04:42:02.903Z,81.6
2022-10-07T04:45:02.910Z,81.6
2022-10-07T04:48:02.901Z,81.6
2022-10-07T04:51:02.947Z,81.6
2022-10-07T04:54:02.882Z,81.6
2022-10-07T04:57:02.913Z,81.6
2022-10-07T05:00:02.918Z,81.6
2022-10-07T05:03:02.934Z,81.6
2022-10-07T05:06:08.342Z,82.3
2022-10-07T05:09:02.914Z,82.3
2022-10-07T05:12:02.863Z,82.3
2022-10-07T05:15:02.930Z,82.3
2022-10-07T05:18:02.852Z,82.3
2022-10-07T05:21:02.915Z,82.3
2022-10-07T05:24:02.891Z,82.3
2022-10-07T05:27:02.916Z,82.3
2022-10-07T05:30:03.167Z,82.3
2022-10-07T05:33:02.925Z,82.3
2022-10-07T05:36:02.978Z,82.3
2022-10-07T05:39:02.942Z,82.3
2022-10-07T05:42:02.905Z,82.3
2022-10-07T05:45:02.973Z,82.3
2022-10-07T05:48:02.915Z,82.3
2022-10-07T05:51:02.956Z,81.4
2022-10-07T05:54:02.871Z,81.4
2022-10-07T05:57:02.934Z,81.4
2022-10-07T06:00:03.073Z,81.4
2022-10-07T06:03:03.292Z,81.4
2022-10-07T06:06:02.959Z,81.4
2022-10-07T06:09:02.962Z,81.4
2022-10-07T06:12:02.958Z,81.4
2022-10-07T06:15:02.913Z,81.4
2022-10-07T06:18:02.963Z,81.4
2022-10-07T06:21:02.930Z,81.4
2022-10-07T06:24:02.942Z,81.4
2022-10-07T06:27:02.925Z,83.1
2022-10-07T06:30:02.961Z,83.1
2022-10-07T06:33:02.929Z,83.1
2022-10-07T06:36:06.960Z,83.1
2022-10-07T06:39:02.955Z,83.1
2022-10-07T06:42:02.974Z,83.1
2022-10-07T06:45:02.907Z,83.1
2022-10-07T06:48:02.948Z,83.1
2022-10-07T06:51:02.912Z,83.1
2022-10-07T06:54:02.970Z,83.1
2022-10-07T06:57:11.540Z,86.7
2022-10-07T07:00:03.022Z,86.7
2022-10-07T07:03:02.891Z,86.7
2022-10-07T07:06:02.961Z,86.7
2022-10-07T07:09:02.940Z,86.7
2022-10-07T07:12:02.946Z,86.7
2022-10-07T07:15:02.950Z,86.7
2022-10-07T07:18:02.977Z,87.1
2022-10-07T07:21:02.928Z,87.2
2022-10-07T07:24:02.942Z,87.2
2022-10-07T07:27:02.916Z,87.2
2022-10-07T07:30:02.994Z,87.2
2022-10-07T07:33:02.930Z,87.8
2022-10-07T07:36:02.905Z,87.8
2022-10-07T07:39:02.920Z,87.8
2022-10-07T07:42:02.953Z,87.8
2022-10-07T07:45:02.907Z,87.8
2022-10-07T07:48:02.921Z,87.9
2022-10-07T07:51:02.927Z,87.9
2022-10-07T07:54:02.951Z,87.9
2022-10-07T07:57:02.948Z,87.9
2022-10-07T08:00:03.030Z,87.5
2022-10-07T08:03:02.929Z,87.5
2022-10-07T08:06:02.938Z,87.5
2022-10-07T08:09:02.996Z,87.5
2022-10-07T08:12:02.935Z,87.1
2022-10-07T08:15:02.933Z,86.9
2022-10-07T08:18:02.979Z,86.9
2022-10-07T08:21:02.914Z,86.9
2022-10-07T08:24:02.986Z,86.5
2022-10-07T08:27:02.909Z,86.5
2022-10-07T08:30:03.002Z,86.5
2022-10-07T08:33:03.998Z,86.2
2022-10-07T08:36:02.933Z,86.2
2022-10-07T08:39:02.942Z,86.2
2022-10-07T08:42:02.951Z,86.2
2022-10-07T08:45:02.973Z,86.2
2022-10-07T08:48:02.987Z,85.3
2022-10-07T08:51:02.920Z,85.3
2022-10-07T08:54:02.893Z,85.3
2022-10-07T08:57:02.910Z,85.3
2022-10-07T09:00:02.932Z,83.5
2022-10-07T09:03:03.072Z,83.5
2022-10-07T09:06:03.199Z,83.5
2022-10-07T09:09:03.012Z,83.5
2022-10-07T09:12:02.910Z,81.5
2022-10-07T09:15:02.940Z,81.5
2022-10-07T09:18:02.966Z,81.5
2022-10-07T09:21:02.966Z,79.1
2022-10-07T09:24:02.942Z,79.1
2022-10-07T09:27:02.921Z,79.1
2022-10-07T09:30:02.963Z,77.2
2022-10-07T09:33:02.926Z,77.2
2022-10-07T09:36:02.940Z,77.2
2022-10-07T09:39:02.914Z,77.2
2022-10-07T09:42:02.951Z,75.6
2022-10-07T09:45:02.965Z,75.6
2022-10-07T09:48:02.988Z,75.6
2022-10-07T09:51:02.908Z,75.6
2022-10-07T09:54:02.986Z,75.6
2022-10-07T09:57:02.910Z,73.8
2022-10-07T10:00:03.070Z,73.8
2022-10-07T10:03:08.290Z,73.8
2022-10-07T10:06:02.964Z,73.4
2022-10-07T10:09:02.963Z,73.4
2022-10-07T10:12:03.007Z,73.4
2022-10-07T10:15:02.938Z,73.4
2022-10-07T10:18:02.931Z,72
2022-10-07T10:21:02.990Z,72
2022-10-07T10:24:04.379Z,72
2022-10-07T10:27:03.347Z,72
2022-10-07T10:30:04.415Z,72
2022-10-07T10:33:03.282Z,70.4
2022-10-07T10:36:06.002Z,70.4
2022-10-07T10:39:59.041Z,70.4
2022-10-07T10:42:03.116Z,70.4
2022-10-07T10:45:03.079Z,70.4
2022-10-07T10:48:04.159Z,69.8
2022-10-07T10:54:03.067Z,69.8
2022-10-07T10:57:03.010Z,69.5
2022-10-07T11:00:03.036Z,69.5
2022-10-07T11:03:03.198Z,67.9
2022-10-07T11:06:02.984Z,67.9
2022-10-07T11:09:03.024Z,67.9
2022-10-07T11:12:03.970Z,67.9
2022-10-07T11:15:03.001Z,67.9
2022-10-07T11:18:03.113Z,66.9
2022-10-07T11:21:03.786Z,66.9
2022-10-07T11:24:03.163Z,66.9
2022-10-07T11:27:03.051Z,66.9
2022-10-07T11:30:03.043Z,66.8
2022-10-07T11:33:02.976Z,66.8
2022-10-07T11:36:02.956Z,66.8
2022-10-07T11:39:02.920Z,66.8
2022-10-07T11:42:02.981Z,66.8
2022-10-07T11:45:02.911Z,64.9
2022-10-07T11:48:03.019Z,64.9
2022-10-07T11:51:02.915Z,64.9
2022-10-07T11:54:02.958Z,64.9
2022-10-07T11:57:02.917Z,65.3
2022-10-07T12:00:02.970Z,65.3
2022-10-07T12:03:03.053Z,65.3
2022-10-07T12:06:02.995Z,65.3
2022-10-07T12:09:02.922Z,63.6
2022-10-07T12:12:02.966Z,63.6
2022-10-07T12:15:02.976Z,63.6
2022-10-07T12:18:02.962Z,63.6
2022-10-07T12:21:02.982Z,63.6
2022-10-07T12:24:02.949Z,62.2
2022-10-07T12:27:02.914Z,62.2
2022-10-07T12:30:03.032Z,62.2
2022-10-07T12:33:03.024Z,62.2
2022-10-07T12:36:02.914Z,62.2
2022-10-07T12:39:02.979Z,62.2
2022-10-07T12:42:02.904Z,62.2
2022-10-07T12:45:02.961Z,62.9
2022-10-07T12:48:02.907Z,62.9
2022-10-07T12:51:02.931Z,61.8
2022-10-07T12:54:03.010Z,61.8
2022-10-07T12:57:02.957Z,61.8
2022-10-07T13:00:03.080Z,61.8
2022-10-07T13:03:02.948Z,61.8
2022-10-07T13:06:02.952Z,61.8
2022-10-07T13:09:03.014Z,61.5
2022-10-07T13:12:02.968Z,61.5
2022-10-07T13:15:03.001Z,61.5
2022-10-07T13:18:03.212Z,61.5
2022-10-07T13:21:02.966Z,61.5
2022-10-07T13:24:03.005Z,61.5
2022-10-07T13:27:02.948Z,60
2022-10-07T13:30:03.192Z,60
2022-10-07T13:33:02.928Z,60
2022-10-07T13:36:02.970Z,60
2022-10-07T13:39:02.928Z,60
2022-10-07T13:42:02.906Z,60
2022-10-07T13:45:03.032Z,60.7
2022-10-07T13:48:02.926Z,60.7
2022-10-07T13:51:02.878Z,60.7
2022-10-07T13:54:02.972Z,60.7
2022-10-07T13:57:02.971Z,60.7
2022-10-07T14:00:03.286Z,60.1
2022-10-07T14:03:03.093Z,60.1
2022-10-07T14:06:02.952Z,60.1
2022-10-07T14:09:02.930Z,60.1
2022-10-07T14:12:03.024Z,60.1
2022-10-07T14:15:03.005Z,60.1
2022-10-07T14:18:02.978Z,60.1
2022-10-07T14:21:02.971Z,60.1
2022-10-07T14:24:02.949Z,58.4
2022-10-07T14:27:02.927Z,58.4
2022-10-07T14:30:03.036Z,58.4
2022-10-07T14:33:02.965Z,58.4
2022-10-07T14:36:02.938Z,58.4
2022-10-07T14:39:02.964Z,60.9
2022-10-07T14:42:02.930Z,60.7
2022-10-07T14:45:02.968Z,60.7
2022-10-07T14:48:02.957Z,60.7
2022-10-07T14:51:02.985Z,60.7
2022-10-07T14:54:02.938Z,60.7
2022-10-07T14:57:02.987Z,60.7
2022-10-07T15:00:03.026Z,59.8
2022-10-07T15:03:02.969Z,59.8
2022-10-07T15:06:03.038Z,59.8
2022-10-07T15:09:03.015Z,59.8
2022-10-07T15:12:02.975Z,59.8
2022-10-07T15:15:02.947Z,59.8
2022-10-07T15:18:02.940Z,59.8
2022-10-07T15:21:02.931Z,59.8
2022-10-07T15:24:02.945Z,59.8
2022-10-07T15:27:02.928Z,59.8
2022-10-07T15:30:03.000Z,59.8
2022-10-07T15:33:02.962Z,59.8
2022-10-07T15:36:03.000Z,59.8
2022-10-07T15:39:02.910Z,62.1
2022-10-07T15:42:02.969Z,62.1
2022-10-07T15:45:03.005Z,62.1
2022-10-07T15:48:03.227Z,62.5
2022-10-07T15:51:02.964Z,62.5
2022-10-07T15:54:02.980Z,62.5
2022-10-07T15:57:02.931Z,62.5
2022-10-07T16:00:03.025Z,62.5
2022-10-07T16:03:03.060Z,62.5
2022-10-07T16:06:02.912Z,62.5
2022-10-07T16:09:02.918Z,62.5
2022-10-07T16:12:02.920Z,62.5
2022-10-07T16:15:02.970Z,62.5
2022-10-07T16:18:02.951Z,62.5
2022-10-07T16:21:02.954Z,62.5
2022-10-07T16:24:02.956Z,62.5
2022-10-07T16:27:02.970Z,65.3
2022-10-07T16:30:03.048Z,65.3
2022-10-07T16:33:02.917Z,65.8
2022-10-07T16:36:02.938Z,65.8
2022-10-07T16:39:02.968Z,65.8
2022-10-07T16:42:02.990Z,65.8
2022-10-07T16:45:02.897Z,65.8
2022-10-07T16:48:02.910Z,65.8
2022-10-07T16:51:02.966Z,65.8
2022-10-07T16:54:02.920Z,65.8
2022-10-07T16:57:02.946Z,66.2
2022-10-07T17:00:02.908Z,66.2
2022-10-07T17:03:03.027Z,66.2
2022-10-07T17:06:02.907Z,66.2
2022-10-07T17:09:02.893Z,66.2
2022-10-07T17:12:02.864Z,66.2
2022-10-07T17:15:02.913Z,66.2
2022-10-07T17:18:02.878Z,66.2
2022-10-07T17:21:02.914Z,66.5
2022-10-07T17:24:02.870Z,66.5
2022-10-07T17:27:02.892Z,66.5
2022-10-07T17:30:02.922Z,66.5
2022-10-07T17:33:02.912Z,66.5
2022-10-07T17:36:02.960Z,66.5
2022-10-07T17:39:02.896Z,67.4
2022-10-07T17:42:02.960Z,67.4
2022-10-07T17:45:02.868Z,67.4
2022-10-07T17:48:02.908Z,67.4
2022-10-07T17:51:02.849Z,67.4
2022-10-07T17:54:02.932Z,67.4
2022-10-07T17:57:02.902Z,67.4
2022-10-07T18:00:03.001Z,67.4
2022-10-07T18:03:02.886Z,67.9
2022-10-07T18:06:02.938Z,67.9
2022-10-07T18:09:02.894Z,67.9
2022-10-07T18:12:02.927Z,67.9
2022-10-07T18:15:02.876Z,67.9
2022-10-07T18:18:02.917Z,67.9
2022-10-07T18:21:02.872Z,68.5
2022-10-07T18:24:02.922Z,68.8
2022-10-07T18:27:02.918Z,68.8
2022-10-07T18:30:02.904Z,68.8
2022-10-07T18:33:02.875Z,68.8
2022-10-07T18:36:02.943Z,68.8
2022-10-07T18:39:02.899Z,68.8
2022-10-07T18:42:02.917Z,68.8
2022-10-07T18:45:02.933Z,68.8
2022-10-07T18:48:02.948Z,69.6
2022-10-07T18:51:03.064Z,69.6
2022-10-07T18:54:02.859Z,69.6
2022-10-07T18:57:02.890Z,69.6
2022-10-07T19:00:02.936Z,69.6
2022-10-07T19:03:02.870Z,69.6
2022-10-07T19:06:02.872Z,69.6
2022-10-07T19:09:02.894Z,70.3
2022-10-07T19:12:02.914Z,70.3
2022-10-07T19:15:02.944Z,70.3
2022-10-07T19:18:02.903Z,70.3
2022-10-07T19:21:02.899Z,70.8
2022-10-07T19:24:02.892Z,70.8
2022-10-07T19:27:02.882Z,70.8
2022-10-07T19:30:02.880Z,70.8
2022-10-07T19:33:02.914Z,70.8
2022-10-07T19:36:02.880Z,71
2022-10-07T19:39:02.887Z,71
2022-10-07T19:42:02.841Z,71
2022-10-07T19:45:02.905Z,71
2022-10-07T19:48:02.967Z,71
2022-10-07T19:51:02.957Z,71
2022-10-07T19:54:02.901Z,71
2022-10-07T19:57:02.843Z,71
2022-10-07T20:00:03.432Z,72.5
2022-10-07T20:03:02.867Z,72.5
2022-10-07T20:06:02.900Z,72.5
2022-10-07T20:09:02.912Z,72.5
2022-10-07T20:12:02.916Z,72.9
2022-10-07T20:15:02.925Z,72.9
2022-10-07T20:18:02.903Z,72.9
2022-10-07T20:21:02.893Z,72.9
2022-10-07T20:24:02.887Z,72.9
2022-10-07T20:27:02.879Z,73.3
2022-10-07T20:30:02.912Z,73.3
2022-10-07T20:33:02.898Z,73.3
2022-10-07T20:36:02.859Z,73.3
2022-10-07T20:39:03.122Z,73.3
2022-10-07T20:42:02.875Z,73.3
2022-10-07T20:45:03.024Z,73.3
2022-10-07T20:48:02.860Z,73.3
2022-10-07T20:51:02.882Z,73.3
2022-10-07T20:54:02.927Z,73.3
2022-10-07T20:57:02.862Z,73.3
2022-10-07T21:00:02.936Z,73.6
2022-10-07T21:03:03.115Z,73.6
2022-10-07T21:06:02.889Z,73.5
2022-10-07T21:09:02.887Z,73.5
2022-10-07T21:12:02.908Z,73.5
2022-10-07T21:15:02.911Z,73.5
2022-10-07T21:18:03.046Z,73.5
2022-10-07T21:21:02.880Z,73.5
2022-10-07T21:24:02.939Z,73.5
2022-10-07T21:27:02.903Z,74
2022-10-07T21:30:02.913Z,74
2022-10-07T21:33:02.873Z,74
2022-10-07T21:36:02.866Z,74
2022-10-07T21:39:02.884Z,74
2022-10-07T21:42:02.906Z,74
2022-10-07T21:45:02.937Z,75
2022-10-07T21:48:02.917Z,75
2022-10-07T21:51:10.815Z,75
2022-10-07T21:54:02.969Z,75
2022-10-07T21:57:02.900Z,75
2022-10-07T22:00:03.188Z,76.1
2022-10-07T22:03:03.009Z,76.1
2022-10-07T22:06:02.926Z,75.8
2022-10-07T22:09:02.898Z,75.8
2022-10-07T22:12:02.935Z,75.8
2022-10-07T22:15:02.879Z,75.8
2022-10-07T22:18:02.912Z,75.8
2022-10-07T22:21:02.872Z,75.8
2022-10-07T22:24:02.934Z,75.8
2022-10-07T22:27:02.892Z,81.5
2022-10-07T22:30:03.101Z,81.5
2022-10-07T22:33:02.927Z,81.5
2022-10-07T22:36:02.922Z,81.5
2022-10-07T22:39:02.884Z,81.5
2022-10-07T22:42:02.901Z,81.5
2022-10-07T22:45:02.931Z,81.5
2022-10-07T22:48:02.866Z,81.5
2022-10-07T22:51:02.918Z,81.5
2022-10-07T22:54:02.883Z,81.2
2022-10-07T22:57:02.865Z,81.2
2022-10-07T23:00:02.920Z,81.1
2022-10-07T23:03:03.365Z,81.1
2022-10-07T23:06:02.939Z,81.1
2022-10-07T23:09:03.410Z,81.1
2022-10-07T23:12:02.918Z,80.7
2022-10-07T23:15:02.901Z,80.7
2022-10-07T23:18:02.905Z,80.7
2022-10-07T23:21:03.223Z,80.7
2022-10-07T23:24:10.678Z,80.7
2022-10-07T23:27:02.917Z,80.7
2022-10-07T23:30:02.875Z,80.7
2022-10-07T23:33:03.431Z,80.7
2022-10-07T23:36:02.881Z,80.7
2022-10-07T23:39:02.952Z,80.7
2022-10-07T23:42:02.922Z,80.7
2022-10-07T23:45:02.884Z,80.7
2022-10-07T23:48:02.868Z,80.7
2022-10-07T23:51:02.917Z,80.4
2022-10-07T23:54:02.893Z,80.4
2022-10-07T23:57:02.896Z,80.4
